sensor_id;sensor_type;location;lat;lon;timestamp;pressure;altitude;pressure_sealevel;temperature;humidity
68077;BME280;54866;53.458;14.540;2022-08-25T00:00:19;101381.77;;;18.11;100.00
68077;BME280;54866;53.458;14.540;2022-08-25T00:02:49;101380.30;;;18.12;100.00
68077;BME280;54866;53.458;14.540;2022-08-25T00:05:19;101379.11;;;18.13;100.00
68077;BME280;54866;53.458;14.540;2022-08-25T00:07:49;101379.72;;;18.14;100.00
68077;BME280;54866;53.458;14.540;2022-08-25T00:10:19;101381.89;;;18.13;100.00
68077;BME280;54866;53.458;14.540;2022-08-25T00:12:51;101380.31;;;18.13;100.00
68077;BME280;54866;53.458;14.540;2022-08-25T00:15:23;101378.48;;;18.14;100.00
68077;BME280;54866;53.458;14.540;2022-08-25T00:17:53;101371.70;;;18.14;100.00
68077;BME280;54866;53.458;14.540;2022-08-25T00:20:23;101371.08;;;18.16;100.00
68077;BME280;54866;53.458;14.540;2022-08-25T00:22:54;101364.59;;;18.17;100.00
68077;BME280;54866;53.458;14.540;2022-08-25T00:25:27;101367.88;;;18.18;100.00
68077;BME280;54866;53.458;14.540;2022-08-25T00:27:57;101366.76;;;18.20;100.00
68077;BME280;54866;53.458;14.540;2022-08-25T00:30:30;101367.52;;;18.21;100.00
68077;BME280;54866;53.458;14.540;2022-08-25T00:33:00;101373.30;;;18.23;100.00
68077;BME280;54866;53.458;14.540;2022-08-25T00:35:30;101372.55;;;18.23;100.00
68077;BME280;54866;53.458;14.540;2022-08-25T00:37:59;101375.36;;;18.25;100.00
68077;BME280;54866;53.458;14.540;2022-08-25T00:40:29;101372.91;;;18.25;100.00
68077;BME280;54866;53.458;14.540;2022-08-25T00:42:59;101374.32;;;18.25;100.00
68077;BME280;54866;53.458;14.540;2022-08-25T00:45:30;101372.14;;;18.25;100.00
68077;BME280;54866;53.458;14.540;2022-08-25T00:48:00;101376.06;;;18.27;100.00
68077;BME280;54866;53.458;14.540;2022-08-25T00:50:32;101374.44;;;18.27;100.00
68077;BME280;54866;53.458;14.540;2022-08-25T00:53:06;101373.30;;;18.28;100.00
68077;BME280;54866;53.458;14.540;2022-08-25T00:55:39;101372.08;;;18.29;100.00
68077;BME280;54866;53.458;14.540;2022-08-25T00:58:12;101373.73;;;18.31;100.00
68077;BME280;54866;53.458;14.540;2022-08-25T01:00:47;101376.22;;;18.32;100.00
68077;BME280;54866;53.458;14.540;2022-08-25T01:03:19;101375.18;;;18.34;100.00
68077;BME280;54866;53.458;14.540;2022-08-25T01:05:49;101371.17;;;18.35;100.00
68077;BME280;54866;53.458;14.540;2022-08-25T01:08:24;101373.47;;;18.37;100.00
68077;BME280;54866;53.458;14.540;2022-08-25T01:10:57;101373.38;;;18.37;100.00
68077;BME280;54866;53.458;14.540;2022-08-25T01:13:32;101371.57;;;18.38;100.00
68077;BME280;54866;53.458;14.540;2022-08-25T01:16:05;101368.73;;;18.37;100.00
68077;BME280;54866;53.458;14.540;2022-08-25T01:18:46;101362.07;;;18.38;100.00
68077;BME280;54866;53.458;14.540;2022-08-25T01:21:20;101358.70;;;18.38;100.00
68077;BME280;54866;53.458;14.540;2022-08-25T01:23:56;101352.87;;;18.37;100.00
68077;BME280;54866;53.458;14.540;2022-08-25T01:26:29;101351.19;;;18.36;100.00
68077;BME280;54866;53.458;14.540;2022-08-25T01:29:01;101357.14;;;18.36;100.00
68077;BME280;54866;53.458;14.540;2022-08-25T01:31:51;101351.04;;;18.34;100.00
68077;BME280;54866;53.458;14.540;2022-08-25T01:34:25;101353.86;;;18.36;100.00
68077;BME280;54866;53.458;14.540;2022-08-25T01:36:56;101345.98;;;18.33;100.00
68077;BME280;54866;53.458;14.540;2022-08-25T01:39:28;101345.55;;;18.34;100.00
68077;BME280;54866;53.458;14.540;2022-08-25T01:42:12;101345.61;;;18.33;100.00
68077;BME280;54866;53.458;14.540;2022-08-25T01:44:44;101345.51;;;18.33;100.00
68077;BME280;54866;53.458;14.540;2022-08-25T01:47:15;101345.30;;;18.33;100.00
68077;BME280;54866;53.458;14.540;2022-08-25T01:49:46;101346.41;;;18.33;100.00
68077;BME280;54866;53.458;14.540;2022-08-25T01:52:22;101350.78;;;18.35;100.00
68077;BME280;54866;53.458;14.540;2022-08-25T01:54:54;101354.86;;;18.35;100.00
68077;BME280;54866;53.458;14.540;2022-08-25T01:57:24;101354.15;;;18.34;100.00
68077;BME280;54866;53.458;14.540;2022-08-25T01:59:53;101353.38;;;18.34;100.00
68077;BME280;54866;53.458;14.540;2022-08-25T02:02:25;101357.04;;;18.35;100.00
68077;BME280;54866;53.458;14.540;2022-08-25T02:04:55;101358.35;;;18.36;100.00
68077;BME280;54866;53.458;14.540;2022-08-25T02:07:29;101358.88;;;18.36;100.00
68077;BME280;54866;53.458;14.540;2022-08-25T02:10:03;101361.23;;;18.36;100.00
68077;BME280;54866;53.458;14.540;2022-08-25T02:12:33;101359.52;;;18.37;100.00
68077;BME280;54866;53.458;14.540;2022-08-25T02:15:12;101356.48;;;18.37;100.00
68077;BME280;54866;53.458;14.540;2022-08-25T02:17:43;101347.27;;;18.31;100.00
68077;BME280;54866;53.458;14.540;2022-08-25T02:20:15;101352.03;;;18.37;100.00
68077;BME280;54866;53.458;14.540;2022-08-25T02:22:45;101351.05;;;18.36;100.00
68077;BME280;54866;53.458;14.540;2022-08-25T02:25:15;101352.33;;;18.36;100.00
68077;BME280;54866;53.458;14.540;2022-08-25T02:27:49;101355.06;;;18.35;100.00
68077;BME280;54866;53.458;14.540;2022-08-25T02:30:19;101352.69;;;18.36;100.00
68077;BME280;54866;53.458;14.540;2022-08-25T02:32:49;101357.67;;;18.36;100.00
68077;BME280;54866;53.458;14.540;2022-08-25T02:35:19;101354.60;;;18.36;100.00
68077;BME280;54866;53.458;14.540;2022-08-25T02:37:50;101357.31;;;18.37;100.00
68077;BME280;54866;53.458;14.540;2022-08-25T02:40:20;101353.01;;;18.38;100.00
68077;BME280;54866;53.458;14.540;2022-08-25T02:42:51;101355.85;;;18.38;100.00
68077;BME280;54866;53.458;14.540;2022-08-25T02:45:21;101353.88;;;18.38;100.00
68077;BME280;54866;53.458;14.540;2022-08-25T02:47:50;101349.35;;;18.37;100.00
68077;BME280;54866;53.458;14.540;2022-08-25T02:50:21;101345.73;;;18.37;100.00
68077;BME280;54866;53.458;14.540;2022-08-25T02:52:50;101342.66;;;18.36;100.00
68077;BME280;54866;53.458;14.540;2022-08-25T02:55:21;101345.44;;;18.37;100.00
68077;BME280;54866;53.458;14.540;2022-08-25T02:57:51;101347.73;;;18.35;100.00
68077;BME280;54866;53.458;14.540;2022-08-25T03:00:21;101343.64;;;18.33;100.00
68077;BME280;54866;53.458;14.540;2022-08-25T03:02:51;101338.31;;;18.31;100.00
68077;BME280;54866;53.458;14.540;2022-08-25T03:05:21;101336.90;;;18.31;100.00
68077;BME280;54866;53.458;14.540;2022-08-25T03:07:51;101334.99;;;18.31;100.00
68077;BME280;54866;53.458;14.540;2022-08-25T03:10:21;101329.87;;;18.30;100.00
68077;BME280;54866;53.458;14.540;2022-08-25T03:12:50;101319.92;;;18.28;100.00
68077;BME280;54866;53.458;14.540;2022-08-25T03:15:20;101323.34;;;18.28;100.00
68077;BME280;54866;53.458;14.540;2022-08-25T03:17:53;101323.59;;;18.27;100.00
68077;BME280;54866;53.458;14.540;2022-08-25T03:20:24;101319.17;;;18.25;100.00
68077;BME280;54866;53.458;14.540;2022-08-25T03:22:55;101317.86;;;18.24;100.00
68077;BME280;54866;53.458;14.540;2022-08-25T03:25:24;101314.00;;;18.23;100.00
68077;BME280;54866;53.458;14.540;2022-08-25T03:28:12;101307.98;;;18.21;100.00
68077;BME280;54866;53.458;14.540;2022-08-25T03:30:43;101314.00;;;18.18;100.00
68077;BME280;54866;53.458;14.540;2022-08-25T03:33:16;101318.06;;;18.15;100.00
68077;BME280;54866;53.458;14.540;2022-08-25T03:35:46;101321.46;;;18.13;100.00
68077;BME280;54866;53.458;14.540;2022-08-25T03:38:16;101319.11;;;18.12;100.00
68077;BME280;54866;53.458;14.540;2022-08-25T03:40:46;101315.67;;;18.12;100.00
68077;BME280;54866;53.458;14.540;2022-08-25T03:43:16;101318.34;;;18.12;100.00
68077;BME280;54866;53.458;14.540;2022-08-25T03:45:46;101314.83;;;18.12;100.00
68077;BME280;54866;53.458;14.540;2022-08-25T03:48:17;101313.20;;;18.12;100.00
68077;BME280;54866;53.458;14.540;2022-08-25T03:50:49;101314.48;;;18.12;100.00
68077;BME280;54866;53.458;14.540;2022-08-25T03:53:19;101318.00;;;18.10;100.00
68077;BME280;54866;53.458;14.540;2022-08-25T03:55:49;101316.73;;;18.07;100.00
68077;BME280;54866;53.458;14.540;2022-08-25T03:58:19;101322.33;;;18.08;100.00
68077;BME280;54866;53.458;14.540;2022-08-25T04:00:49;101324.22;;;18.07;100.00
68077;BME280;54866;53.458;14.540;2022-08-25T04:03:19;101330.05;;;18.07;100.00
68077;BME280;54866;53.458;14.540;2022-08-25T04:05:49;101330.08;;;18.07;100.00
68077;BME280;54866;53.458;14.540;2022-08-25T04:08:18;101329.16;;;18.06;100.00
68077;BME280;54866;53.458;14.540;2022-08-25T04:10:49;101329.42;;;18.05;100.00
68077;BME280;54866;53.458;14.540;2022-08-25T04:13:19;101328.79;;;18.04;100.00
68077;BME280;54866;53.458;14.540;2022-08-25T04:15:50;101325.13;;;18.03;100.00
68077;BME280;54866;53.458;14.540;2022-08-25T04:18:19;101319.98;;;18.03;100.00
68077;BME280;54866;53.458;14.540;2022-08-25T04:20:49;101323.63;;;18.03;100.00
68077;BME280;54866;53.458;14.540;2022-08-25T04:23:19;101325.17;;;18.05;100.00
68077;BME280;54866;53.458;14.540;2022-08-25T04:25:49;101322.02;;;18.06;100.00
68077;BME280;54866;53.458;14.540;2022-08-25T04:28:19;101325.43;;;18.07;100.00
68077;BME280;54866;53.458;14.540;2022-08-25T04:30:49;101327.02;;;18.09;100.00
68077;BME280;54866;53.458;14.540;2022-08-25T04:33:19;101323.45;;;18.11;100.00
68077;BME280;54866;53.458;14.540;2022-08-25T04:35:49;101322.06;;;18.13;100.00
68077;BME280;54866;53.458;14.540;2022-08-25T04:38:19;101319.05;;;18.14;100.00
68077;BME280;54866;53.458;14.540;2022-08-25T04:40:57;101320.00;;;18.15;100.00
68077;BME280;54866;53.458;14.540;2022-08-25T04:43:28;101316.80;;;18.17;100.00
68077;BME280;54866;53.458;14.540;2022-08-25T04:45:59;101319.77;;;18.19;100.00
68077;BME280;54866;53.458;14.540;2022-08-25T04:48:29;101319.64;;;18.22;100.00
68077;BME280;54866;53.458;14.540;2022-08-25T04:51:05;101322.43;;;18.23;100.00
68077;BME280;54866;53.458;14.540;2022-08-25T04:53:36;101328.92;;;18.24;100.00
68077;BME280;54866;53.458;14.540;2022-08-25T04:56:09;101328.52;;;18.26;100.00
68077;BME280;54866;53.458;14.540;2022-08-25T04:58:40;101332.45;;;18.30;100.00
68077;BME280;54866;53.458;14.540;2022-08-25T05:01:11;101328.84;;;18.32;100.00
68077;BME280;54866;53.458;14.540;2022-08-25T05:03:43;101330.58;;;18.34;100.00
68077;BME280;54866;53.458;14.540;2022-08-25T05:06:14;101334.29;;;18.34;100.00
68077;BME280;54866;53.458;14.540;2022-08-25T05:08:44;101334.25;;;18.34;100.00
68077;BME280;54866;53.458;14.540;2022-08-25T05:11:15;101335.45;;;18.35;100.00
68077;BME280;54866;53.458;14.540;2022-08-25T05:13:48;101336.90;;;18.35;100.00
68077;BME280;54866;53.458;14.540;2022-08-25T05:16:20;101344.17;;;18.33;100.00
68077;BME280;54866;53.458;14.540;2022-08-25T05:18:50;101340.86;;;18.33;100.00
68077;BME280;54866;53.458;14.540;2022-08-25T05:21:22;101341.79;;;18.32;100.00
68077;BME280;54866;53.458;14.540;2022-08-25T05:23:55;101339.52;;;18.32;100.00
68077;BME280;54866;53.458;14.540;2022-08-25T05:26:26;101344.02;;;18.31;100.00
68077;BME280;54866;53.458;14.540;2022-08-25T05:29:00;101344.86;;;18.32;100.00
68077;BME280;54866;53.458;14.540;2022-08-25T05:31:32;101346.95;;;18.34;100.00
68077;BME280;54866;53.458;14.540;2022-08-25T05:34:05;101345.21;;;18.34;100.00
68077;BME280;54866;53.458;14.540;2022-08-25T05:36:36;101349.73;;;18.35;100.00
68077;BME280;54866;53.458;14.540;2022-08-25T05:39:10;101339.15;;;18.37;100.00
68077;BME280;54866;53.458;14.540;2022-08-25T05:41:40;101338.52;;;18.38;100.00
68077;BME280;54866;53.458;14.540;2022-08-25T05:44:10;101339.56;;;18.38;100.00
68077;BME280;54866;53.458;14.540;2022-08-25T05:46:41;101335.58;;;18.40;100.00
68077;BME280;54866;53.458;14.540;2022-08-25T05:49:10;101334.42;;;18.47;100.00
68077;BME280;54866;53.458;14.540;2022-08-25T05:51:40;101338.21;;;18.54;100.00
68077;BME280;54866;53.458;14.540;2022-08-25T05:54:10;101337.63;;;18.59;100.00
68077;BME280;54866;53.458;14.540;2022-08-25T05:56:40;101340.73;;;18.64;100.00
68077;BME280;54866;53.458;14.540;2022-08-25T05:59:10;101340.34;;;18.73;100.00
68077;BME280;54866;53.458;14.540;2022-08-25T06:01:40;101338.97;;;18.83;100.00
68077;BME280;54866;53.458;14.540;2022-08-25T06:04:28;101340.59;;;18.92;100.00
68077;BME280;54866;53.458;14.540;2022-08-25T06:06:57;101344.13;;;18.99;100.00
68077;BME280;54866;53.458;14.540;2022-08-25T06:09:27;101343.89;;;19.01;99.69
68077;BME280;54866;53.458;14.540;2022-08-25T06:11:59;101341.39;;;19.03;99.42
68077;BME280;54866;53.458;14.540;2022-08-25T06:14:29;101344.66;;;19.01;98.80
68077;BME280;54866;53.458;14.540;2022-08-25T06:16:59;101344.98;;;18.97;98.68
68077;BME280;54866;53.458;14.540;2022-08-25T06:19:28;101350.48;;;18.93;98.58
68077;BME280;54866;53.458;14.540;2022-08-25T06:22:00;101346.19;;;18.89;98.75
68077;BME280;54866;53.458;14.540;2022-08-25T06:24:30;101349.64;;;18.90;98.98
68077;BME280;54866;53.458;14.540;2022-08-25T06:27:00;101353.52;;;18.91;98.68
68077;BME280;54866;53.458;14.540;2022-08-25T06:29:30;101353.66;;;18.89;98.29
68077;BME280;54866;53.458;14.540;2022-08-25T06:32:00;101358.09;;;18.85;98.12
68077;BME280;54866;53.458;14.540;2022-08-25T06:34:30;101356.77;;;18.82;98.16
68077;BME280;54866;53.458;14.540;2022-08-25T06:37:00;101352.19;;;18.83;98.17
68077;BME280;54866;53.458;14.540;2022-08-25T06:39:29;101350.70;;;18.85;97.89
68077;BME280;54866;53.458;14.540;2022-08-25T06:42:01;101349.91;;;18.91;97.83
68077;BME280;54866;53.458;14.540;2022-08-25T06:44:31;101345.74;;;19.04;97.41
68077;BME280;54866;53.458;14.540;2022-08-25T06:47:01;101339.27;;;19.20;96.70
68077;BME280;54866;53.458;14.540;2022-08-25T06:49:31;101340.75;;;19.33;96.21
68077;BME280;54866;53.458;14.540;2022-08-25T06:52:02;101344.55;;;19.46;95.97
68077;BME280;54866;53.458;14.540;2022-08-25T06:54:32;101342.38;;;19.60;95.28
68077;BME280;54866;53.458;14.540;2022-08-25T06:57:03;101338.27;;;19.78;94.53
68077;BME280;54866;53.458;14.540;2022-08-25T06:59:34;101332.40;;;19.91;93.32
68077;BME280;54866;53.458;14.540;2022-08-25T07:02:05;101334.75;;;19.98;92.27
68077;BME280;54866;53.458;14.540;2022-08-25T07:04:37;101334.48;;;20.00;91.52
68077;BME280;54866;53.458;14.540;2022-08-25T07:07:06;101334.38;;;20.08;91.18
68077;BME280;54866;53.458;14.540;2022-08-25T07:09:36;101328.50;;;20.10;90.02
68077;BME280;54866;53.458;14.540;2022-08-25T07:12:07;101329.50;;;20.14;90.24
68077;BME280;54866;53.458;14.540;2022-08-25T07:14:37;101331.64;;;20.21;89.84
68077;BME280;54866;53.458;14.540;2022-08-25T07:17:07;101328.76;;;20.28;88.83
68077;BME280;54866;53.458;14.540;2022-08-25T07:19:37;101326.48;;;20.42;88.99
68077;BME280;54866;53.458;14.540;2022-08-25T07:22:07;101325.23;;;20.51;87.84
68077;BME280;54866;53.458;14.540;2022-08-25T07:24:37;101327.51;;;20.58;86.88
68077;BME280;54866;53.458;14.540;2022-08-25T07:27:07;101327.98;;;20.74;85.64
68077;BME280;54866;53.458;14.540;2022-08-25T07:29:37;101328.27;;;20.85;85.69
68077;BME280;54866;53.458;14.540;2022-08-25T07:32:07;101329.02;;;20.91;84.80
68077;BME280;54866;53.458;14.540;2022-08-25T07:34:40;101330.51;;;20.99;84.42
68077;BME280;54866;53.458;14.540;2022-08-25T07:37:27;101322.00;;;21.11;83.35
68077;BME280;54866;53.458;14.540;2022-08-25T07:39:57;101318.25;;;21.41;83.08
68077;BME280;54866;53.458;14.540;2022-08-25T07:42:30;101318.13;;;22.20;79.79
68077;BME280;54866;53.458;14.540;2022-08-25T07:45:01;101313.73;;;22.79;78.30
68077;BME280;54866;53.458;14.540;2022-08-25T07:47:32;101306.65;;;23.92;74.31
68077;BME280;54866;53.458;14.540;2022-08-25T07:50:03;101306.30;;;25.65;68.31
68077;BME280;54866;53.458;14.540;2022-08-25T07:52:33;101309.56;;;26.88;61.92
68077;BME280;54866;53.458;14.540;2022-08-25T07:55:04;101304.59;;;28.05;59.46
68077;BME280;54866;53.458;14.540;2022-08-25T07:57:35;101308.21;;;29.09;55.94
68077;BME280;54866;53.458;14.540;2022-08-25T08:00:07;101309.39;;;29.69;54.71
68077;BME280;54866;53.458;14.540;2022-08-25T08:02:38;101315.36;;;29.76;53.74
68077;BME280;54866;53.458;14.540;2022-08-25T08:05:11;101302.13;;;29.84;51.34
68077;BME280;54866;53.458;14.540;2022-08-25T08:07:41;101305.33;;;30.53;51.28
68077;BME280;54866;53.458;14.540;2022-08-25T08:10:13;101299.70;;;31.18;51.01
68077;BME280;54866;53.458;14.540;2022-08-25T08:12:43;101297.99;;;31.58;48.51
68077;BME280;54866;53.458;14.540;2022-08-25T08:15:13;101300.39;;;32.01;47.76
68077;BME280;54866;53.458;14.540;2022-08-25T08:17:43;101302.14;;;31.91;45.40
68077;BME280;54866;53.458;14.540;2022-08-25T08:20:13;101296.85;;;31.68;44.74
68077;BME280;54866;53.458;14.540;2022-08-25T08:22:45;101290.52;;;32.31;43.46
68077;BME280;54866;53.458;14.540;2022-08-25T08:28:05;101278.33;;;33.66;41.51
68077;BME280;54866;53.458;14.540;2022-08-25T08:30:35;101274.48;;;34.21;39.56
68077;BME280;54866;53.458;14.540;2022-08-25T08:33:05;101271.95;;;33.93;39.07
68077;BME280;54866;53.458;14.540;2022-08-25T08:35:35;101270.27;;;34.13;39.43
68077;BME280;54866;53.458;14.540;2022-08-25T08:38:04;101273.65;;;34.62;38.71
68077;BME280;54866;53.458;14.540;2022-08-25T08:40:42;101266.44;;;35.32;39.53
68077;BME280;54866;53.458;14.540;2022-08-25T08:43:35;101266.64;;;36.36;35.55
68077;BME280;54866;53.458;14.540;2022-08-25T08:46:05;101264.11;;;36.30;35.83
68077;BME280;54866;53.458;14.540;2022-08-25T08:48:54;101269.23;;;36.85;35.45
68077;BME280;54866;53.458;14.540;2022-08-25T08:51:34;101264.37;;;37.15;33.94
68077;BME280;54866;53.458;14.540;2022-08-25T08:54:22;101265.23;;;37.19;33.08
68077;BME280;54866;53.458;14.540;2022-08-25T08:57:00;101267.20;;;36.97;32.87
68077;BME280;54866;53.458;14.540;2022-08-25T08:59:48;101270.06;;;36.83;32.95
68077;BME280;54866;53.458;14.540;2022-08-25T09:02:24;101263.83;;;36.37;33.49
68077;BME280;54866;53.458;14.540;2022-08-25T09:05:12;101268.73;;;35.86;34.77
68077;BME280;54866;53.458;14.540;2022-08-25T09:07:47;101264.94;;;36.18;34.29
68077;BME280;54866;53.458;14.540;2022-08-25T09:13:22;101266.61;;;36.53;33.47
68077;BME280;54866;53.458;14.540;2022-08-25T09:16:01;101265.38;;;36.33;33.44
68077;BME280;54866;53.458;14.540;2022-08-25T09:18:55;101268.52;;;35.83;33.70
68077;BME280;54866;53.458;14.540;2022-08-25T09:21:48;101266.61;;;35.09;35.42
68077;BME280;54866;53.458;14.540;2022-08-25T09:24:34;101257.87;;;35.28;35.74
68077;BME280;54866;53.458;14.540;2022-08-25T09:27:15;101255.00;;;35.64;35.20
68077;BME280;54866;53.458;14.540;2022-08-25T09:30:00;101250.63;;;36.11;34.67
68077;BME280;54866;53.458;14.540;2022-08-25T09:32:35;101245.48;;;36.63;33.79
68077;BME280;54866;53.458;14.540;2022-08-25T09:35:25;101246.60;;;37.18;33.27
68077;BME280;54866;53.458;14.540;2022-08-25T09:38:16;101244.90;;;37.64;32.73
68077;BME280;54866;53.458;14.540;2022-08-25T09:40:49;101247.77;;;37.97;31.91
68077;BME280;54866;53.458;14.540;2022-08-25T09:43:33;101243.09;;;37.84;30.63
68077;BME280;54866;53.458;14.540;2022-08-25T09:46:14;101237.89;;;37.50;31.31
68077;BME280;54866;53.458;14.540;2022-08-25T09:48:47;101233.04;;;37.72;31.82
68077;BME280;54866;53.458;14.540;2022-08-25T09:51:20;101237.13;;;37.71;31.25
68077;BME280;54866;53.458;14.540;2022-08-25T09:53:57;101233.46;;;37.57;31.36
68077;BME280;54866;53.458;14.540;2022-08-25T09:56:30;101234.23;;;37.21;32.01
68077;BME280;54866;53.458;14.540;2022-08-25T09:59:19;101240.25;;;36.66;33.44
68077;BME280;54866;53.458;14.540;2022-08-25T10:01:51;101239.09;;;36.86;33.42
68077;BME280;54866;53.458;14.540;2022-08-25T10:04:25;101234.39;;;36.71;32.61
68077;BME280;54866;53.458;14.540;2022-08-25T10:06:55;101230.96;;;35.83;33.18
68077;BME280;54866;53.458;14.540;2022-08-25T10:09:29;101229.90;;;35.11;34.98
68077;BME280;54866;53.458;14.540;2022-08-25T10:12:00;101227.19;;;34.52;36.28
68077;BME280;54866;53.458;14.540;2022-08-25T10:14:35;101224.09;;;34.23;36.24
68077;BME280;54866;53.458;14.540;2022-08-25T10:17:18;101214.73;;;34.65;36.46
68077;BME280;54866;53.458;14.540;2022-08-25T10:19:53;101210.45;;;35.15;35.40
68077;BME280;54866;53.458;14.540;2022-08-25T10:22:24;101207.04;;;35.15;34.76
68077;BME280;54866;53.458;14.540;2022-08-25T10:24:59;101199.56;;;34.59;35.25
68077;BME280;54866;53.458;14.540;2022-08-25T10:27:35;101203.64;;;34.43;35.96
68077;BME280;54866;53.458;14.540;2022-08-25T10:30:18;101202.56;;;34.13;36.41
68077;BME280;54866;53.458;14.540;2022-08-25T10:33:04;101199.20;;;33.77;36.91
68077;BME280;54866;53.458;14.540;2022-08-25T10:35:46;101201.75;;;33.45;37.60
68077;BME280;54866;53.458;14.540;2022-08-25T10:38:29;101201.08;;;33.30;38.12
68077;BME280;54866;53.458;14.540;2022-08-25T10:41:07;101193.73;;;33.48;37.75
68077;BME280;54866;53.458;14.540;2022-08-25T10:43:45;101186.70;;;33.53;37.20
68077;BME280;54866;53.458;14.540;2022-08-25T10:46:27;101187.90;;;33.77;37.31
68077;BME280;54866;53.458;14.540;2022-08-25T10:49:03;101189.69;;;33.87;36.64
68077;BME280;54866;53.458;14.540;2022-08-25T10:51:44;101189.45;;;33.91;36.51
68077;BME280;54866;53.458;14.540;2022-08-25T10:54:24;101184.34;;;33.96;36.49
68077;BME280;54866;53.458;14.540;2022-08-25T10:57:04;101181.02;;;33.92;36.49
68077;BME280;54866;53.458;14.540;2022-08-25T11:00:00;101178.47;;;33.90;36.87
68077;BME280;54866;53.458;14.540;2022-08-25T11:05:41;101176.01;;;33.83;36.29
68077;BME280;54866;53.458;14.540;2022-08-25T11:08:16;101169.23;;;33.81;36.88
68077;BME280;54866;53.458;14.540;2022-08-25T11:10:52;101167.99;;;33.71;36.65
68077;BME280;54866;53.458;14.540;2022-08-25T11:13:35;101164.92;;;33.63;37.02
68077;BME280;54866;53.458;14.540;2022-08-25T11:16:11;101157.75;;;33.40;37.08
68077;BME280;54866;53.458;14.540;2022-08-25T11:18:48;101157.39;;;33.43;37.53
68077;BME280;54866;53.458;14.540;2022-08-25T11:21:22;101155.25;;;33.62;37.46
68077;BME280;54866;53.458;14.540;2022-08-25T11:23:59;101156.63;;;33.88;36.67
68077;BME280;54866;53.458;14.540;2022-08-25T11:26:34;101150.73;;;34.08;36.80
68077;BME280;54866;53.458;14.540;2022-08-25T11:29:13;101148.45;;;34.46;36.18
68077;BME280;54866;53.458;14.540;2022-08-25T11:31:47;101149.40;;;34.66;34.88
68077;BME280;54866;53.458;14.540;2022-08-25T11:34:18;101145.17;;;34.50;34.98
68077;BME280;54866;53.458;14.540;2022-08-25T11:36:54;101148.77;;;34.69;34.53
68077;BME280;54866;53.458;14.540;2022-08-25T11:39:40;101149.38;;;34.58;34.46
68077;BME280;54866;53.458;14.540;2022-08-25T11:42:21;101143.17;;;34.28;34.59
68077;BME280;54866;53.458;14.540;2022-08-25T11:45:10;101136.39;;;34.13;35.31
68077;BME280;54866;53.458;14.540;2022-08-25T11:47:56;101134.14;;;34.32;35.37
68077;BME280;54866;53.458;14.540;2022-08-25T11:50:53;101133.28;;;34.34;34.97
68077;BME280;54866;53.458;14.540;2022-08-25T11:53:26;101138.56;;;34.21;34.92
68077;BME280;54866;53.458;14.540;2022-08-25T11:55:58;101139.10;;;34.27;35.18
68077;BME280;54866;53.458;14.540;2022-08-25T11:58:48;101135.30;;;34.14;34.89
68077;BME280;54866;53.458;14.540;2022-08-25T12:04:35;101133.42;;;34.65;35.52
68077;BME280;54866;53.458;14.540;2022-08-25T12:07:27;101132.82;;;34.97;34.55
68077;BME280;54866;53.458;14.540;2022-08-25T12:10:18;101132.62;;;33.99;34.44
68077;BME280;54866;53.458;14.540;2022-08-25T12:13:04;101128.86;;;33.25;36.18
68077;BME280;54866;53.458;14.540;2022-08-25T12:16:01;101125.01;;;33.12;36.25
68077;BME280;54866;53.458;14.540;2022-08-25T12:18:45;101121.65;;;33.21;36.78
68077;BME280;54866;53.458;14.540;2022-08-25T12:21:30;101119.21;;;33.79;36.76
68077;BME280;54866;53.458;14.540;2022-08-25T12:24:21;101113.01;;;34.32;35.54
68077;BME280;54866;53.458;14.540;2022-08-25T12:26:57;101110.11;;;34.55;35.63
68077;BME280;54866;53.458;14.540;2022-08-25T12:29:33;101105.06;;;34.94;35.03
68077;BME280;54866;53.458;14.540;2022-08-25T12:35:25;101092.48;;;35.32;33.77
68077;BME280;54866;53.458;14.540;2022-08-25T12:38:06;101096.11;;;35.54;32.76
68077;BME280;54866;53.458;14.540;2022-08-25T12:40:52;101099.81;;;35.40;32.63
68077;BME280;54866;53.458;14.540;2022-08-25T12:43:28;101092.86;;;35.26;32.90
68077;BME280;54866;53.458;14.540;2022-08-25T12:49:00;101094.45;;;35.17;32.64
68077;BME280;54866;53.458;14.540;2022-08-25T12:51:50;101091.81;;;35.09;33.42
68077;BME280;54866;53.458;14.540;2022-08-25T12:54:27;101083.90;;;35.13;33.28
68077;BME280;54866;53.458;14.540;2022-08-25T12:57:02;101083.39;;;35.11;33.39
68077;BME280;54866;53.458;14.540;2022-08-25T12:59:37;101079.59;;;35.02;33.70
68077;BME280;54866;53.458;14.540;2022-08-25T13:02:42;101082.08;;;35.06;33.76
68077;BME280;54866;53.458;14.540;2022-08-25T13:11:26;101077.93;;;34.53;35.13
68077;BME280;54866;53.458;14.540;2022-08-25T13:14:11;101069.27;;;34.57;34.39
68077;BME280;54866;53.458;14.540;2022-08-25T13:16:52;101070.55;;;34.44;34.92
68077;BME280;54866;53.458;14.540;2022-08-25T13:19:23;101069.21;;;34.58;34.64
68077;BME280;54866;53.458;14.540;2022-08-25T13:21:54;101071.26;;;34.45;34.68
68077;BME280;54866;53.458;14.540;2022-08-25T13:24:28;101069.88;;;34.19;35.26
68077;BME280;54866;53.458;14.540;2022-08-25T13:27:01;101064.69;;;34.27;35.28
68077;BME280;54866;53.458;14.540;2022-08-25T13:29:33;101063.58;;;34.48;34.77
68077;BME280;54866;53.458;14.540;2022-08-25T13:32:05;101057.98;;;34.69;34.32
68077;BME280;54866;53.458;14.540;2022-08-25T13:34:38;101058.23;;;34.57;34.45